TimeMST,TemperatureF,Dew PointF,Humidity,Sea Level PressureIn,VisibilityMPH,Wind Direction,Wind SpeedMPH,Gust SpeedMPH,PrecipitationIn,Events,Conditions,WindDirDegrees,DateUTC
12:53 AM,24.1,17.1,75,29.96,10.0,West,3.5,-,N/A,,Clear,270,2013-02-04 07:53:00
1:53 AM,19.0,14.0,81,29.97,10.0,West,8.1,-,N/A,,Clear,260,2013-02-04 08:53:00
3:53 AM,19.0,14.0,81,29.97,10.0,West,5.8,-,N/A,,Clear,270,2013-02-04 10:53:00
4:53 AM,15.1,10.9,84,29.99,10.0,West,8.1,-,N/A,,Clear,270,2013-02-04 11:53:00
5:53 AM,16.0,10.9,81,30.01,10.0,West,6.9,-,N/A,,Clear,260,2013-02-04 12:53:00
6:53 AM,17.1,12.0,81,29.98,10.0,West,5.8,-,N/A,,Clear,260,2013-02-04 13:53:00
7:53 AM,21.0,16.0,81,29.96,10.0,Calm,Calm,-,N/A,,Clear,0,2013-02-04 14:53:00
8:53 AM,28.9,21.0,72,29.96,10.0,WSW,5.8,-,N/A,,Clear,240,2013-02-04 15:53:00
9:53 AM,34.0,19.9,56,29.95,10.0,West,6.9,-,N/A,,Partly Cloudy,270,2013-02-04 16:53:00
10:53 AM,48.0,16.0,28,29.88,10.0,West,16.1,-,N/A,,Clear,280,2013-02-04 17:53:00
11:53 AM,52.0,12.9,21,29.83,10.0,West,16.1,-,N/A,,Scattered Clouds,270,2013-02-04 18:53:00
12:53 PM,54.0,10.9,18,29.82,10.0,West,19.6,25.3,N/A,,Clear,280,2013-02-04 19:53:00
1:53 PM,53.1,12.0,20,29.82,10.0,NW,17.3,-,N/A,,Scattered Clouds,310,2013-02-04 20:53:00
2:53 PM,52.0,12.9,21,29.82,10.0,NNW,17.3,25.3,N/A,,Scattered Clouds,330,2013-02-04 21:53:00
3:53 PM,46.9,18.0,32,29.86,10.0,North,13.8,-,N/A,,Clear,360,2013-02-04 22:53:00
4:53 PM,39.0,19.9,46,29.91,10.0,North,9.2,-,N/A,,Clear,10,2013-02-04 23:53:00
5:53 PM,35.1,19.0,52,29.93,10.0,NW,3.5,-,N/A,,Clear,320,2013-02-05 00:53:00
6:53 PM,30.0,18.0,61,29.95,10.0,WSW,3.5,-,N/A,,Clear,240,2013-02-05 01:53:00
7:53 PM,24.1,17.1,75,29.96,10.0,West,6.9,-,N/A,,Clear,260,2013-02-05 02:53:00
8:53 PM,21.9,16.0,78,29.95,10.0,West,4.6,-,N/A,,Clear,270,2013-02-05 03:53:00
9:53 PM,19.0,14.0,81,29.95,10.0,West,4.6,-,N/A,,Clear,270,2013-02-05 04:53:00
10:53 PM,21.0,15.1,78,29.91,10.0,West,6.9,-,N/A,,Clear,260,2013-02-05 05:53:00
11:53 PM,23.0,17.1,78,29.89,10.0,West,8.1,-,N/A,,Clear,280,2013-02-05 06:53:00